createdAt,value
2022-11-20T00:01:34.322Z,36.75
2022-11-20T00:04:14.163Z,32.50
2022-11-20T00:07:01.240Z,34.22
2022-11-20T00:09:41.167Z,46.50
2022-11-20T00:12:35.159Z,57.90
2022-11-20T00:15:22.168Z,57.67
2022-11-20T00:18:02.168Z,50.15
2022-11-20T00:20:56.193Z,47.47
2022-11-20T00:23:43.198Z,48.78
2022-11-20T00:26:20.241Z,48.15
2022-11-20T00:29:08.175Z,44.95
2022-11-20T00:31:42.275Z,50.25
2022-11-20T00:34:29.163Z,39.50
2022-11-20T00:37:16.180Z,47.58
2022-11-20T00:40:10.154Z,44.95
2022-11-20T00:43:04.172Z,50.72
2022-11-20T00:45:51.178Z,51.97
2022-11-20T00:48:24.246Z,57.45
2022-11-20T00:51:12.181Z,53.75
2022-11-20T00:53:52.186Z,46.00
2022-11-20T00:56:46.186Z,50.75
2022-11-20T00:59:33.175Z,45.83
2022-11-20T01:02:06.255Z,33.70
2022-11-20T01:04:53.174Z,36.15
2022-11-20T01:07:26.305Z,33.78
2022-11-20T01:10:13.177Z,35.90
2022-11-20T01:13:06.222Z,39.53
2022-11-20T01:15:53.192Z,57.05
2022-11-20T01:18:29.259Z,64.72
2022-11-20T01:21:34.192Z,61.85
2022-11-20T01:24:08.910Z,58.75
2022-11-20T01:26:57.193Z,65.70
2022-11-20T01:29:39.204Z,50.47
2022-11-20T01:32:33.171Z,53.70
2022-11-20T01:35:20.201Z,47.38
2022-11-20T01:37:53.287Z,52.33
2022-11-20T01:40:40.221Z,49.90
2022-11-20T01:43:26.615Z,45.22
2022-11-20T01:46:16.195Z,48.58
2022-11-20T01:48:58.274Z,46.85
2022-11-20T01:51:56.196Z,46.60
2022-11-20T01:54:36.348Z,46.45
2022-11-20T01:57:24.194Z,40.20
2022-11-20T02:00:04.314Z,48.05
2022-11-20T02:02:56.211Z,41.65
2022-11-20T02:05:46.262Z,39.42
2022-11-20T02:08:33.214Z,39.58
2022-11-20T02:11:13.227Z,41.45
2022-11-20T02:14:07.324Z,46.20
2022-11-20T02:17:03.190Z,42.97
2022-11-20T02:19:50.218Z,42.03
2022-11-20T02:22:45.217Z,45.13
2022-11-20T02:25:41.183Z,42.72
2022-11-20T02:28:28.262Z,41.35
2022-11-20T02:31:01.278Z,43.95
2022-11-20T02:33:48.214Z,38.55
2022-11-20T02:36:23.281Z,44.75
2022-11-20T02:39:18.346Z,49.60
2022-11-20T02:42:12.204Z,39.90
2022-11-20T02:44:59.219Z,46.42
2022-11-20T02:47:39.233Z,48.88
2022-11-20T02:50:26.187Z,51.03
2022-11-20T02:53:06.240Z,47.67
2022-11-20T02:56:00.271Z,47.50
2022-11-20T02:58:54.224Z,44.25
2022-11-20T03:01:41.271Z,47.10
2022-11-20T03:04:14.344Z,48.58
2022-11-20T03:07:01.264Z,52.70
2022-11-20T03:09:34.302Z,51.20
2022-11-20T03:12:21.252Z,39.45
2022-11-20T03:14:54.340Z,43.40
2022-11-20T03:17:41.199Z,43.60
2022-11-20T03:20:15.775Z,47.35
2022-11-20T03:23:02.204Z,48.13
2022-11-20T03:25:42.265Z,42.88
2022-11-20T03:28:36.234Z,43.08
2022-11-20T03:31:26.226Z,43.88
2022-11-20T03:34:00.303Z,44.53
2022-11-20T03:36:48.219Z,43.63
2022-11-20T03:39:21.655Z,43.15
2022-11-20T03:42:08.226Z,41.88
2022-11-20T03:44:41.320Z,45.75
2022-11-20T03:47:28.234Z,40.88
2022-11-20T03:50:01.318Z,41.83
2022-11-20T03:52:48.218Z,43.67
2022-11-20T03:55:21.320Z,40.38
2022-11-20T03:58:08.250Z,38.55
2022-11-20T04:00:41.354Z,47.20
2022-11-20T04:03:28.259Z,36.13
2022-11-20T04:06:01.304Z,37.50
2022-11-20T04:08:53.597Z,33.97
2022-11-20T04:11:30.306Z,33.58
2022-11-20T04:14:24.219Z,34.75
2022-11-20T04:16:57.342Z,37.78
2022-11-20T04:19:44.241Z,42.20
2022-11-20T04:22:17.302Z,44.15
2022-11-20T04:25:04.245Z,50.42
2022-11-20T04:27:45.239Z,43.20
2022-11-20T04:30:32.262Z,44.38
2022-11-20T04:33:05.313Z,42.17
2022-11-20T04:35:55.254Z,44.88
2022-11-20T04:38:28.346Z,40.95
2022-11-20T04:41:18.247Z,44.13
2022-11-20T04:43:59.983Z,38.97
2022-11-20T04:46:49.257Z,36.97
2022-11-20T04:49:22.642Z,35.65
2022-11-20T04:52:09.250Z,29.05
2022-11-20T04:54:42.315Z,42.42
2022-11-20T04:57:29.254Z,40.83
2022-11-20T05:00:02.324Z,38.05
2022-11-20T05:02:49.284Z,37.45
2022-11-20T05:05:22.336Z,34.30
2022-11-20T05:08:09.252Z,32.05
2022-11-20T05:10:42.329Z,40.05
2022-11-20T05:13:29.268Z,39.95
2022-11-20T05:16:02.336Z,35.78
2022-11-20T05:18:49.243Z,38.00
2022-11-20T05:21:23.368Z,32.58
2022-11-20T05:24:10.262Z,39.60
2022-11-20T05:26:50.267Z,39.40
2022-11-20T05:29:37.270Z,37.63
2022-11-20T05:32:10.795Z,29.48
2022-11-20T05:34:57.292Z,35.63
2022-11-20T05:37:30.342Z,36.95
2022-11-20T05:40:24.299Z,32.92
2022-11-20T05:43:18.295Z,35.53
2022-11-20T05:46:12.246Z,34.10
2022-11-20T05:49:06.335Z,34.38
2022-11-20T05:51:53.259Z,37.13
2022-11-20T05:54:26.382Z,41.45
2022-11-20T05:57:13.329Z,37.97
2022-11-20T05:59:46.376Z,37.05
2022-11-20T06:02:33.308Z,38.38
2022-11-20T06:05:06.350Z,36.55
2022-11-20T06:07:53.245Z,40.30
2022-11-20T06:10:33.277Z,34.55
2022-11-20T06:13:20.269Z,35.33
2022-11-20T06:15:58.347Z,34.30
2022-11-20T06:18:45.282Z,36.03
2022-11-20T06:21:21.413Z,33.28
2022-11-20T06:24:08.277Z,34.67
2022-11-20T06:26:41.410Z,37.33
2022-11-20T06:29:33.641Z,36.95
2022-11-20T06:32:07.343Z,36.60
2022-11-20T06:34:54.290Z,37.05
2022-11-20T06:37:34.300Z,41.58
2022-11-20T06:40:28.292Z,37.67
2022-11-20T06:43:25.286Z,46.70
2022-11-20T06:46:19.304Z,37.40
2022-11-20T06:49:13.296Z,39.22
2022-11-20T06:52:00.331Z,35.38
2022-11-20T06:54:40.310Z,44.72
2022-11-20T06:57:27.302Z,44.38
2022-11-20T07:00:00.405Z,55.15
2022-11-20T07:02:47.299Z,50.10
2022-11-20T07:05:20.376Z,53.50
2022-11-20T07:08:07.305Z,53.15
2022-11-20T07:10:48.286Z,51.47
2022-11-20T07:13:43.313Z,52.80
2022-11-20T07:16:30.300Z,46.10
2022-11-20T07:19:03.454Z,49.00
2022-11-20T07:21:50.304Z,45.53
2022-11-20T07:24:23.357Z,46.63
2022-11-20T07:27:10.322Z,51.88
2022-11-20T07:29:43.397Z,41.03
2022-11-20T07:32:30.303Z,45.20
2022-11-20T07:35:10.305Z,46.72
2022-11-20T07:38:04.366Z,48.15
2022-11-20T07:40:58.327Z,42.63
2022-11-20T07:43:45.293Z,43.58
2022-11-20T07:46:18.385Z,47.72
2022-11-20T07:49:05.296Z,44.00
2022-11-20T07:51:38.386Z,43.08
2022-11-20T07:54:25.318Z,45.17
2022-11-20T07:57:05.302Z,46.88
2022-11-20T07:59:53.306Z,46.58
2022-11-20T08:02:33.305Z,39.75
2022-11-20T08:05:20.377Z,43.25
2022-11-20T08:07:53.426Z,42.22
2022-11-20T08:10:40.290Z,45.60
2022-11-20T08:13:38.315Z,51.53
2022-11-20T08:16:32.309Z,73.38
2022-11-20T08:19:23.468Z,79.05
2022-11-20T08:22:03.308Z,79.93
2022-11-20T08:24:57.352Z,67.22
2022-11-20T08:27:44.318Z,72.53
2022-11-20T08:30:18.598Z,75.28
2022-11-20T08:33:11.312Z,71.60
2022-11-20T08:35:52.303Z,63.53
2022-11-20T08:38:46.326Z,58.88
2022-11-20T08:41:34.396Z,55.40
2022-11-20T08:44:12.453Z,50.60
2022-11-20T08:46:59.321Z,58.53
2022-11-20T08:49:32.380Z,51.10
2022-11-20T08:52:19.339Z,52.28
2022-11-20T08:54:52.404Z,52.97
2022-11-20T08:57:50.590Z,41.88
2022-11-20T09:00:31.343Z,45.83
2022-11-20T09:03:18.372Z,43.75
2022-11-20T09:05:51.600Z,37.90
2022-11-20T09:08:38.325Z,39.78
2022-11-20T09:11:19.347Z,40.88
2022-11-20T09:14:13.324Z,34.55
2022-11-20T09:17:07.353Z,32.63
2022-11-20T09:20:01.335Z,34.72
2022-11-20T09:22:48.368Z,31.92
2022-11-20T09:25:21.405Z,33.60
2022-11-20T09:28:08.316Z,32.88
2022-11-20T09:30:48.354Z,33.97
2022-11-20T09:33:42.335Z,32.75
2022-11-20T09:36:29.358Z,34.90
2022-11-20T09:39:02.448Z,32.55
2022-11-20T09:41:58.341Z,31.65
2022-11-20T09:44:40.516Z,36.05
2022-11-20T09:47:36.317Z,33.60
2022-11-20T09:50:39.495Z,35.17
2022-11-20T09:53:54.345Z,35.00
2022-11-20T09:56:44.371Z,29.90
2022-11-20T09:59:50.434Z,29.52
2022-11-20T10:02:47.370Z,31.08
2022-11-20T10:05:35.365Z,30.85
2022-11-20T10:08:55.355Z,33.97
2022-11-20T10:12:09.350Z,30.52
2022-11-20T10:15:34.373Z,34.03
2022-11-20T10:18:56.386Z,34.13
2022-11-20T10:22:18.352Z,33.90
2022-11-20T10:25:25.372Z,37.33
2022-11-20T10:28:30.491Z,35.70
2022-11-20T10:31:29.368Z,37.30
2022-11-20T10:34:26.367Z,33.92
2022-11-20T10:37:17.487Z,36.38
2022-11-20T10:40:13.352Z,32.35
2022-11-20T10:42:57.442Z,33.15
2022-11-20T10:45:53.363Z,30.63
2022-11-20T10:48:34.437Z,27.95
2022-11-20T10:51:30.386Z,26.02
2022-11-20T10:54:51.408Z,27.35
2022-11-20T10:58:09.456Z,28.40
2022-11-20T11:00:56.474Z,25.05
2022-11-20T11:03:38.520Z,26.77
2022-11-20T11:06:34.394Z,30.33
2022-11-20T11:09:19.711Z,29.75
2022-11-20T11:12:07.342Z,32.67
2022-11-20T11:14:50.567Z,39.00
2022-11-20T11:17:39.398Z,46.05
2022-11-20T11:20:18.536Z,44.15
2022-11-20T11:23:07.377Z,49.20
2022-11-20T11:25:43.450Z,51.70
2022-11-20T11:28:33.369Z,47.67
2022-11-20T11:31:06.486Z,48.67
2022-11-20T11:33:53.393Z,47.20
2022-11-20T11:36:34.436Z,53.00
2022-11-20T11:39:34.397Z,44.70
2022-11-20T11:42:33.382Z,40.88
2022-11-20T11:45:24.372Z,44.35
2022-11-20T11:48:06.411Z,40.15
2022-11-20T11:51:04.391Z,37.42
2022-11-20T11:53:54.407Z,38.00
2022-11-20T11:56:30.545Z,43.25
2022-11-20T11:59:24.746Z,40.40
2022-11-20T12:02:19.300Z,31.40
2022-11-20T12:05:08.368Z,32.08
2022-11-20T12:08:02.471Z,31.60
2022-11-20T12:11:10.403Z,27.88
2022-11-20T12:14:21.388Z,33.08
2022-11-20T12:16:56.619Z,28.23
2022-11-20T12:19:43.392Z,30.17
2022-11-20T12:22:38.449Z,30.77
2022-11-20T12:25:31.446Z,33.88
2022-11-20T12:28:23.466Z,28.75
2022-11-20T12:31:39.448Z,27.02
2022-11-20T12:34:38.416Z,30.52
2022-11-20T12:37:50.439Z,36.72
2022-11-20T12:41:04.392Z,33.90
2022-11-20T12:44:43.417Z,36.45
2022-11-20T12:48:22.398Z,33.90
2022-11-20T12:51:24.418Z,30.27
2022-11-20T12:54:25.471Z,29.35
2022-11-20T12:57:56.424Z,33.67
2022-11-20T13:00:31.483Z,31.13
2022-11-20T13:04:00.420Z,35.03
2022-11-20T13:06:40.404Z,27.48
2022-11-20T13:09:37.403Z,33.30
2022-11-20T13:12:43.412Z,34.15
2022-11-20T13:15:47.485Z,30.40
2022-11-20T13:18:35.412Z,34.47
2022-11-20T13:21:15.411Z,30.90
2022-11-20T13:24:18.433Z,33.75
2022-11-20T13:27:15.409Z,30.00
2022-11-20T13:29:59.416Z,31.90
2022-11-20T13:32:56.415Z,32.58
2022-11-20T13:35:41.412Z,34.40
2022-11-20T13:38:33.708Z,35.67
2022-11-20T13:41:28.345Z,56.60
2022-11-20T13:44:18.433Z,46.10
2022-11-20T13:46:53.492Z,44.00
2022-11-20T13:49:52.437Z,67.60
2022-11-20T13:52:38.444Z,49.80
2022-11-20T13:55:35.408Z,33.65
2022-11-20T13:58:41.428Z,33.97
2022-11-20T14:01:31.484Z,40.22
2022-11-20T14:04:12.431Z,38.88
2022-11-20T14:07:06.455Z,34.17
2022-11-20T14:10:01.421Z,34.92
2022-11-20T14:12:40.492Z,40.45
2022-11-20T14:15:34.449Z,37.08
2022-11-20T14:18:25.609Z,40.97
2022-11-20T14:21:12.513Z,50.17
2022-11-20T14:23:45.513Z,42.25
2022-11-20T14:26:32.449Z,38.53
2022-11-20T14:29:05.519Z,33.58
2022-11-20T14:31:54.647Z,40.42
2022-11-20T14:34:32.519Z,39.13
2022-11-20T14:37:25.440Z,45.08
2022-11-20T14:40:03.789Z,42.10
2022-11-20T14:42:51.450Z,58.92
2022-11-20T14:45:32.443Z,55.63
2022-11-20T14:48:26.483Z,47.00
2022-11-20T14:51:13.520Z,55.25
2022-11-20T14:53:46.596Z,58.92
2022-11-20T14:56:33.449Z,54.97
2022-11-20T14:59:06.527Z,47.42
2022-11-20T15:02:06.467Z,49.33
2022-11-20T15:04:39.525Z,52.60
2022-11-20T15:07:41.509Z,53.20
2022-11-20T15:10:17.559Z,57.60
2022-11-20T15:13:13.535Z,43.58
2022-11-20T15:15:58.625Z,55.42
2022-11-20T15:18:50.455Z,68.50
2022-11-20T15:21:27.537Z,82.30
2022-11-20T15:24:16.464Z,92.80
2022-11-20T15:26:50.532Z,96.97
2022-11-20T15:29:37.449Z,73.28
2022-11-20T15:32:17.463Z,64.95
2022-11-20T15:35:04.464Z,68.60
2022-11-20T15:37:44.472Z,54.33
2022-11-20T15:40:38.464Z,58.00
2022-11-20T15:43:32.458Z,48.55
2022-11-20T15:46:23.451Z,58.67
2022-11-20T15:49:02.716Z,70.22
2022-11-20T15:51:51.455Z,68.80
2022-11-20T15:54:29.533Z,80.35
2022-11-20T15:57:16.490Z,83.32
2022-11-20T15:59:49.576Z,79.20
2022-11-20T16:02:36.476Z,71.78
2022-11-20T16:05:09.579Z,53.78
2022-11-20T16:07:57.480Z,67.97
2022-11-20T16:10:37.459Z,56.78
2022-11-20T16:13:50.475Z,58.53
2022-11-20T16:16:48.455Z,53.95
2022-11-20T16:19:35.504Z,63.38
2022-11-20T16:22:15.468Z,56.95
2022-11-20T16:25:09.490Z,60.47
2022-11-20T16:27:56.476Z,67.97
2022-11-20T16:30:36.463Z,68.95
2022-11-20T16:33:27.497Z,60.92
2022-11-20T16:36:08.575Z,63.88
2022-11-20T16:39:00.512Z,75.80
2022-11-20T16:41:35.676Z,64.68
2022-11-20T16:44:22.752Z,63.97
2022-11-20T16:46:56.565Z,72.80
2022-11-20T16:49:43.485Z,93.75
2022-11-20T16:52:23.523Z,109.72
2022-11-20T16:55:17.499Z,80.95
2022-11-20T16:58:04.483Z,94.35
2022-11-20T17:00:50.007Z,85.72
2022-11-20T17:03:31.478Z,88.03
2022-11-20T17:06:25.492Z,101.90
2022-11-20T17:09:00.626Z,84.97
2022-11-20T17:11:47.506Z,86.15
2022-11-20T17:14:27.494Z,93.88
2022-11-20T17:17:14.486Z,121.28
2022-11-20T17:19:54.563Z,118.15
2022-11-20T17:22:48.509Z,91.95
2022-11-20T17:25:35.511Z,99.80
2022-11-20T17:28:08.635Z,102.53
2022-11-20T17:30:55.522Z,87.68
2022-11-20T17:33:28.601Z,78.50
2022-11-20T17:36:17.484Z,86.13
2022-11-20T17:38:52.032Z,79.47
2022-11-20T17:41:45.508Z,68.78
2022-11-20T17:44:39.536Z,72.95
2022-11-20T17:47:26.513Z,64.78
2022-11-20T17:50:06.497Z,71.05
2022-11-20T17:53:00.513Z,83.18
2022-11-20T17:56:05.500Z,82.57
2022-11-20T17:58:38.595Z,75.20
2022-11-20T18:01:25.522Z,81.50
2022-11-20T18:03:58.591Z,82.63
2022-11-20T18:06:45.513Z,65.93
2022-11-20T18:09:19.685Z,78.45
2022-11-20T18:12:06.503Z,85.47
2022-11-20T18:14:39.605Z,103.35
2022-11-20T18:17:26.536Z,123.65
2022-11-20T18:23:06.529Z,144.10
2022-11-20T18:25:39.936Z,133.25
2022-11-20T18:28:26.495Z,138.90
2022-11-20T18:31:06.544Z,130.40
2022-11-20T18:34:01.503Z,126.97
2022-11-20T18:36:49.521Z,106.53
2022-11-20T18:39:23.685Z,91.05
2022-11-20T18:42:29.537Z,93.80
2022-11-20T18:45:04.422Z,97.30
2022-11-20T18:47:51.523Z,87.15
2022-11-20T18:50:24.597Z,95.03
2022-11-20T18:53:11.524Z,89.57
2022-11-20T18:55:51.524Z,94.28
2022-11-20T18:58:47.536Z,86.72
2022-11-20T19:01:41.525Z,86.97
2022-11-20T19:04:29.519Z,98.00
2022-11-20T19:07:03.129Z,95.25
2022-11-20T19:09:51.537Z,84.05
2022-11-20T19:12:25.608Z,85.85
2022-11-20T19:15:12.569Z,90.43
2022-11-20T19:17:45.602Z,80.72
2022-11-20T19:20:33.516Z,93.43
2022-11-20T19:23:13.555Z,83.72
2022-11-20T19:26:05.588Z,81.57
2022-11-20T19:28:39.719Z,82.97
2022-11-20T19:31:29.545Z,82.18
2022-11-20T19:34:04.635Z,78.43
2022-11-20T19:36:51.545Z,83.20
2022-11-20T19:39:24.814Z,86.72
2022-11-20T19:42:11.715Z,88.05
2022-11-20T19:44:44.609Z,81.70
2022-11-20T19:48:00.607Z,75.78
2022-11-20T19:50:24.624Z,77.63
2022-11-20T19:53:11.569Z,89.97
2022-11-20T19:55:51.681Z,76.60
2022-11-20T19:58:45.549Z,81.53
2022-11-20T20:01:41.568Z,67.72
2022-11-20T20:04:28.550Z,77.78
2022-11-20T20:07:03.959Z,64.20
2022-11-20T20:09:50.569Z,70.90
2022-11-20T20:12:23.628Z,71.60
2022-11-20T20:15:11.550Z,77.13
2022-11-20T20:17:44.616Z,75.35
2022-11-20T20:20:32.590Z,72.03
2022-11-20T20:23:07.420Z,73.65
2022-11-20T20:25:54.547Z,71.07
2022-11-20T20:28:34.552Z,64.88
2022-11-20T20:31:24.542Z,67.90
2022-11-20T20:33:57.687Z,68.72
2022-11-20T20:36:44.552Z,69.53
2022-11-20T20:39:17.776Z,84.45
2022-11-20T20:42:04.568Z,88.70
2022-11-20T20:45:16.570Z,96.18
2022-11-20T20:48:10.588Z,99.80
2022-11-20T20:51:05.580Z,110.32
2022-11-20T20:53:38.650Z,78.85
2022-11-20T20:56:25.586Z,99.30
2022-11-20T20:58:58.706Z,86.95
2022-11-20T21:01:45.607Z,98.18
2022-11-20T21:04:18.635Z,81.20
2022-11-20T21:07:05.600Z,86.30
2022-11-20T21:09:38.638Z,87.55
2022-11-20T21:12:25.581Z,98.15
2022-11-20T21:14:58.701Z,76.60
2022-11-20T21:17:45.574Z,71.60
2022-11-20T21:20:37.621Z,64.05
2022-11-20T21:23:25.565Z,65.85
2022-11-20T21:26:05.590Z,65.95
2022-11-20T21:28:59.622Z,71.18
2022-11-20T21:31:46.718Z,68.20
2022-11-20T21:34:27.580Z,61.15
2022-11-20T21:37:14.569Z,77.55
2022-11-20T21:39:51.957Z,66.75
2022-11-20T21:42:38.574Z,62.53
2022-11-20T21:45:11.687Z,68.55
2022-11-20T21:47:58.585Z,105.03
2022-11-20T21:50:38.569Z,117.07
2022-11-20T21:53:25.592Z,108.00
2022-11-20T21:56:10.579Z,108.32
2022-11-20T21:59:05.609Z,116.05
2022-11-20T22:01:59.625Z,99.38
2022-11-20T22:04:46.598Z,88.15
2022-11-20T22:07:19.735Z,91.35
2022-11-20T22:10:06.601Z,110.88
2022-11-20T22:12:39.686Z,84.90
2022-11-20T22:15:53.494Z,104.75
2022-11-20T22:18:22.540Z,87.25
2022-11-20T22:21:15.593Z,83.75
2022-11-20T22:23:48.726Z,78.88
2022-11-20T22:26:40.546Z,101.07
2022-11-20T22:29:14.818Z,85.53
2022-11-20T22:32:01.596Z,100.03
2022-11-20T22:34:34.675Z,91.32
2022-11-20T22:37:21.598Z,83.47
2022-11-20T22:40:01.587Z,82.07
2022-11-20T22:42:58.615Z,73.93
2022-11-20T22:45:52.615Z,79.22
2022-11-20T22:48:51.592Z,77.95
2022-11-20T22:51:40.620Z,74.90
2022-11-20T22:54:14.770Z,75.70
2022-11-20T22:57:01.625Z,78.07
2022-11-20T22:59:41.624Z,81.18
2022-11-20T23:02:35.548Z,76.28
2022-11-20T23:05:29.638Z,64.25
2022-11-20T23:08:16.608Z,74.65
2022-11-20T23:10:49.695Z,70.75
2022-11-20T23:13:37.597Z,66.68
2022-11-20T23:16:13.692Z,73.22
2022-11-20T23:19:02.620Z,71.57
2022-11-20T23:21:35.798Z,65.78
2022-11-20T23:24:22.598Z,70.20
2022-11-20T23:26:55.692Z,69.68
2022-11-20T23:29:42.635Z,70.43
2022-11-20T23:32:15.691Z,53.63
2022-11-20T23:35:02.601Z,60.72
2022-11-20T23:37:35.808Z,69.53
2022-11-20T23:40:29.625Z,62.08
2022-11-20T23:43:21.618Z,71.70
2022-11-20T23:46:13.716Z,53.75
2022-11-20T23:49:09.634Z,53.83
2022-11-20T23:51:56.606Z,59.53
2022-11-20T23:54:36.603Z,56.47
2022-11-20T23:57:23.607Z,59.45
